sensor_id;sensor_type;location;lat;lon;timestamp;pressure;altitude;pressure_sealevel;temperature;humidity
74524;BME280;63074;44.696;10.358;2023-04-06T04:56:51;100233.97;;;1.66;51.04
74524;BME280;63074;44.696;10.358;2023-04-06T20:18:42;100089.56;;;8.88;54.26
74524;BME280;63074;44.696;10.358;2023-04-06T20:21:09;100080.31;;;8.84;54.21
74524;BME280;63074;44.696;10.358;2023-04-06T20:23:38;100087.38;;;8.78;54.08
74524;BME280;63074;44.696;10.358;2023-04-06T20:26:09;100088.25;;;8.72;53.88
74524;BME280;63074;44.696;10.358;2023-04-06T20:28:36;100085.59;;;8.72;54.49
74524;BME280;63074;44.696;10.358;2023-04-06T20:31:07;100079.78;;;8.75;54.04
74524;BME280;63074;44.696;10.358;2023-04-06T20:33:34;100083.50;;;8.74;54.33
74524;BME280;63074;44.696;10.358;2023-04-06T20:36:00;100087.97;;;8.62;54.35
74524;BME280;63074;44.696;10.358;2023-04-06T20:38:29;100083.06;;;8.59;54.43
74524;BME280;63074;44.696;10.358;2023-04-06T20:40:55;100085.31;;;8.62;54.62
74524;BME280;63074;44.696;10.358;2023-04-06T20:43:23;100093.00;;;8.52;55.06
74524;BME280;63074;44.696;10.358;2023-04-06T20:45:52;100095.53;;;8.46;55.33
74524;BME280;63074;44.696;10.358;2023-04-06T20:48:18;100093.59;;;8.35;55.30
74524;BME280;63074;44.696;10.358;2023-04-06T20:50:44;100092.69;;;8.41;54.96
74524;BME280;63074;44.696;10.358;2023-04-06T20:53:10;100093.22;;;8.50;54.70
74524;BME280;63074;44.696;10.358;2023-04-06T20:55:40;100092.69;;;8.41;55.05
74524;BME280;63074;44.696;10.358;2023-04-06T20:58:06;100092.25;;;8.44;54.90
74524;BME280;63074;44.696;10.358;2023-04-06T21:00:33;100087.28;;;8.48;54.51
74524;BME280;63074;44.696;10.358;2023-04-06T21:02:59;100091.38;;;8.51;53.94
74524;BME280;63074;44.696;10.358;2023-04-06T21:05:25;100083.56;;;8.49;53.92
74524;BME280;63074;44.696;10.358;2023-04-06T21:07:52;100087.50;;;8.46;54.05
74524;BME280;63074;44.696;10.358;2023-04-06T21:10:18;100084.50;;;8.36;54.50
74524;BME280;63074;44.696;10.358;2023-04-06T21:12:44;100083.31;;;8.32;55.05
74524;BME280;63074;44.696;10.358;2023-04-06T21:15:10;100081.97;;;7.92;56.75
74524;BME280;63074;44.696;10.358;2023-04-06T21:17:36;100080.88;;;7.68;58.16
74524;BME280;63074;44.696;10.358;2023-04-06T21:20:03;100080.03;;;7.74;57.77
74524;BME280;63074;44.696;10.358;2023-04-06T21:22:29;100080.88;;;7.68;58.36
74524;BME280;63074;44.696;10.358;2023-04-06T21:24:55;100070.09;;;7.11;61.72
74524;BME280;63074;44.696;10.358;2023-04-06T21:27:22;100077.78;;;6.88;62.37
74524;BME280;63074;44.696;10.358;2023-04-06T21:29:48;100071.44;;;6.76;62.92
74524;BME280;63074;44.696;10.358;2023-04-06T21:32:14;100075.06;;;6.95;62.38
74524;BME280;63074;44.696;10.358;2023-04-06T21:34:43;100076.72;;;6.96;61.67
74524;BME280;63074;44.696;10.358;2023-04-06T21:37:13;100066.38;;;7.13;61.12
74524;BME280;63074;44.696;10.358;2023-04-06T21:39:40;100062.53;;;6.95;61.21
74524;BME280;63074;44.696;10.358;2023-04-06T21:42:06;100061.59;;;6.70;61.69
74524;BME280;63074;44.696;10.358;2023-04-06T21:44:35;100057.38;;;7.00;61.87
74524;BME280;63074;44.696;10.358;2023-04-06T21:47:01;100056.75;;;7.05;61.65
74524;BME280;63074;44.696;10.358;2023-04-06T21:49:28;100057.19;;;6.95;62.06
74524;BME280;63074;44.696;10.358;2023-04-06T21:51:55;100061.28;;;6.98;62.18
74524;BME280;63074;44.696;10.358;2023-04-06T21:54:21;100060.31;;;6.92;62.43
74524;BME280;63074;44.696;10.358;2023-04-06T21:56:47;100059.72;;;6.84;62.28
74524;BME280;63074;44.696;10.358;2023-04-06T21:59:13;100058.72;;;6.71;63.31
74524;BME280;63074;44.696;10.358;2023-04-06T22:01:40;100061.50;;;6.96;62.68
74524;BME280;63074;44.696;10.358;2023-04-06T22:04:06;100057.56;;;7.05;62.16
74524;BME280;63074;44.696;10.358;2023-04-06T22:06:33;100058.97;;;7.21;62.35
74524;BME280;63074;44.696;10.358;2023-04-06T22:08:59;100059.00;;;7.08;62.12
74524;BME280;63074;44.696;10.358;2023-04-06T22:11:26;100062.91;;;7.12;61.67
74524;BME280;63074;44.696;10.358;2023-04-06T22:13:52;100058.28;;;7.26;61.55
74524;BME280;63074;44.696;10.358;2023-04-06T22:16:19;100049.78;;;6.97;62.62
74524;BME280;63074;44.696;10.358;2023-04-06T22:18:45;100054.59;;;6.82;63.64
74524;BME280;63074;44.696;10.358;2023-04-06T22:21:11;100043.28;;;6.87;63.47
74524;BME280;63074;44.696;10.358;2023-04-06T22:23:37;100040.22;;;6.70;63.60
74524;BME280;63074;44.696;10.358;2023-04-06T22:26:08;100041.88;;;6.71;64.43
74524;BME280;63074;44.696;10.358;2023-04-06T22:28:35;100036.13;;;6.67;64.72
74524;BME280;63074;44.696;10.358;2023-04-06T22:31:01;100037.50;;;6.90;64.41
74524;BME280;63074;44.696;10.358;2023-04-06T22:33:27;100039.91;;;7.04;63.53
74524;BME280;63074;44.696;10.358;2023-04-06T22:35:53;100042.72;;;7.16;63.65
74524;BME280;63074;44.696;10.358;2023-04-06T22:38:19;100048.75;;;7.05;63.91
74524;BME280;63074;44.696;10.358;2023-04-06T22:40:46;100050.59;;;7.04;64.16
74524;BME280;63074;44.696;10.358;2023-04-06T22:43:12;100051.81;;;7.08;63.66
74524;BME280;63074;44.696;10.358;2023-04-06T22:45:38;100051.81;;;7.08;63.87
74524;BME280;63074;44.696;10.358;2023-04-06T22:48:04;100045.84;;;7.06;63.84
74524;BME280;63074;44.696;10.358;2023-04-06T22:50:30;100046.91;;;6.99;64.93
74524;BME280;63074;44.696;10.358;2023-04-06T22:52:57;100037.16;;;6.73;64.99
74524;BME280;63074;44.696;10.358;2023-04-06T22:55:23;100041.63;;;6.92;65.53
74524;BME280;63074;44.696;10.358;2023-04-06T22:57:50;100038.25;;;7.03;64.12
74524;BME280;63074;44.696;10.358;2023-04-06T23:00:16;100041.34;;;7.07;63.87
74524;BME280;63074;44.696;10.358;2023-04-06T23:02:43;100034.66;;;6.85;65.21
74524;BME280;63074;44.696;10.358;2023-04-06T23:05:09;100034.03;;;6.83;65.49
74524;BME280;63074;44.696;10.358;2023-04-06T23:07:36;100033.66;;;6.66;65.84
74524;BME280;63074;44.696;10.358;2023-04-06T23:10:02;100029.25;;;6.27;68.36
74524;BME280;63074;44.696;10.358;2023-04-06T23:12:28;100037.06;;;5.89;70.56
74524;BME280;63074;44.696;10.358;2023-04-06T23:14:55;100036.44;;;6.20;70.84
74524;BME280;63074;44.696;10.358;2023-04-06T23:17:21;100032.34;;;6.10;71.19
74524;BME280;63074;44.696;10.358;2023-04-06T23:19:47;100022.91;;;6.28;69.33
74524;BME280;63074;44.696;10.358;2023-04-06T23:22:13;100021.06;;;6.22;69.56
74524;BME280;63074;44.696;10.358;2023-04-06T23:24:39;100020.38;;;6.39;69.43
74524;BME280;63074;44.696;10.358;2023-04-06T23:27:06;100030.44;;;6.37;69.89
74524;BME280;63074;44.696;10.358;2023-04-06T23:29:32;100037.22;;;6.40;70.85
74524;BME280;63074;44.696;10.358;2023-04-06T23:31:58;100045.47;;;6.19;71.01
74524;BME280;63074;44.696;10.358;2023-04-06T23:34:25;100031.31;;;6.18;71.30
74524;BME280;63074;44.696;10.358;2023-04-06T23:36:51;100022.66;;;6.42;69.62
74524;BME280;63074;44.696;10.358;2023-04-06T23:39:19;100024.50;;;6.35;69.97
74524;BME280;63074;44.696;10.358;2023-04-06T23:41:46;100020.84;;;6.30;70.96
74524;BME280;63074;44.696;10.358;2023-04-06T23:44:12;100023.72;;;6.15;71.88
74524;BME280;63074;44.696;10.358;2023-04-06T23:46:38;100029.09;;;6.02;72.64
74524;BME280;63074;44.696;10.358;2023-04-06T23:49:04;100039.56;;;5.97;72.42
74524;BME280;63074;44.696;10.358;2023-04-06T23:51:30;100035.00;;;6.10;72.35
74524;BME280;63074;44.696;10.358;2023-04-06T23:53:56;100033.19;;;5.91;73.13
74524;BME280;63074;44.696;10.358;2023-04-06T23:56:23;100025.16;;;6.18;71.93
74524;BME280;63074;44.696;10.358;2023-04-06T23:58:49;100027.84;;;5.98;73.32
